グアダラハラ の空港の天気 - METARとTAF

ドン・ミゲル・イダルゴ・イ・コスティージャ国際空港 ( MMGL / GDL ) - メキシコ ハリスコ州グアダラハラ
飛行場実況気象(Metar)
観測時間07/28 21:48 CDT (07/29 02:48 UTC)
風向・風速静穏 0m/s
視程10km以上
天気現象
全天の4割程度の雲 雲底高度 2130m
全天の8割程度の雲 雲底高度 3050m
全天の8割程度の雲 雲底高度 9140m
気温19℃
湿度73%
気圧1012hPa
METARMMGL 290248Z 00000KT 8SM SCT070 BKN100 BKN300 19/14 A3018 RMK SLP120 52017 912 8/078 CB SW
過去の天気等 Google飛行場航空写真 Wunderground天気予報

過去48時間のMETAR

飛行場予報(TAF)
発表時間: 7/28 17:42 CDT (7/28 22:42 UTC)
予報対象時間: 28日19時 CDT ~ 30日1時 CDT
風向・風速北北東 5m/s
視程10km以上
全天の4割程度の積乱雲 雲底高度 760m
全天の8割程度の雲 雲底高度 2440m
28日20時 CDT から
風向・風速北北西 4m/s
視程8050m
天気現象弱い雨
全天の8割程度の積乱雲 雲底高度 610m
全天を覆う雲 雲底高度 2440m
28日23時 CDT ~ 29日3時 CDT に一時的に
視程6440m
天気現象雷雨
全天の8割程度の積乱雲 雲底高度 460m
29日3時 CDT から
風向・風速静穏
視程10km以上
天気現象煙霧
全天の4割程度の雲 雲底高度 610m
全天の8割程度の雲 雲底高度 2440m
29日13時 CDT から
風向・風速北北東 5m/s
視程10km以上
全天の8割程度の雲 雲底高度 910m
全天の8割程度の雲 雲底高度 2440m
全天の8割程度の雲 雲底高度 7620m
29日20時 CDT から
風向・風速北北東 4m/s
視程8050m
天気現象弱い雨
全天の8割程度の積乱雲 雲底高度 760m
全天の8割程度の雲 雲底高度 2440m
29日21時 CDT ~ 30日1時 CDT に一時的に
視程6440m
天気現象雷雨
全天の8割程度の積乱雲 雲底高度 610m
TAF MMGL 282242Z 2900/3006 02010KT P6SM SCT025CB BKN080 TX27/2921Z TN18/2912Z
FM290100 34008KT 5SM -RA BKN020CB OVC080
TEMPO 2904/2908 4SM TSRA BKN015CB
FM290800 00000KT 6SM HZ SCT020 BKN080
FM291800 02010KT P6SM BKN030 BKN080 BKN250
FM300100 03008KT 5SM -RA BKN025CB BKN080
TEMPO 3002/3006 4SM TSRA BKN020CB